Time;durP1;ratioP1;P1;durP2;ratioP2;P2;SDS_P1;SDS_P2;PMS_P1;PMS_P2;Temp;Humidity;BMP_temperature;BMP_pressure;BME280_temperature;BME280_humidity;BME280_pressure;Samples;Min_cycle;Max_cycle;Signal;HPM_P1;HPM_P2
2023/03/05 00:03:33;;;;;;;9.53;3.53;;;-0.40;99.90;;;;;;9816976;30;20230;-83
2023/03/05 00:08:57;;;;;;;6.93;3.57;;;-0.40;99.90;;;;;;9847876;30;20233;-82
2023/03/05 00:14:18;;;;;;;5.60;3.10;;;-0.50;99.90;;;;;;9805596;30;20203;-82
2023/03/05 00:19:39;;;;;;;6.67;3.13;;;-0.50;1.00;;;;;;9811533;30;20293;-83
2023/03/05 00:25:01;;;;;;;11.60;4.13;;;-0.50;99.90;;;;;;9805902;30;20205;-83
2023/03/05 00:30:22;;;;;;;8.50;3.10;;;-0.60;99.90;;;;;;9793845;30;20275;-83
2023/03/05 00:35:45;;;;;;;7.97;3.20;;;-0.70;1.00;;;;;;9821674;30;20567;-83
2023/03/05 00:41:07;;;;;;;5.17;2.43;;;-0.70;1.00;;;;;;9805950;30;20459;-83
2023/03/05 00:46:28;;;;;;;6.23;2.50;;;-0.70;1.00;;;;;;9818638;30;20221;-82
2023/03/05 00:51:50;;;;;;;5.33;2.13;;;-0.70;99.90;;;;;;9822786;30;20225;-83
2023/03/05 00:57:11;;;;;;;18.90;8.43;;;-0.70;1.00;;;;;;9822873;30;20245;-81
2023/03/05 01:02:32;;;;;;;14.40;5.80;;;-0.80;1.00;;;;;;9832855;30;20195;-83
2023/03/05 01:07:55;;;;;;;14.27;5.97;;;-0.80;1.00;;;;;;9837254;30;20241;-83
2023/03/05 01:13:17;;;;;;;18.17;8.13;;;-0.80;99.90;;;;;;9841841;30;20239;-83
2023/03/05 01:18:39;;;;;;;10.90;4.30;;;-0.80;1.00;;;;;;9845534;30;20284;-82
2023/03/05 01:24:01;;;;;;;5.93;3.07;;;-0.80;1.00;;;;;;9847952;30;20203;-83
2023/03/05 01:29:23;;;;;;;5.20;2.73;;;-0.80;1.00;;;;;;9860689;30;20209;-83
2023/03/05 01:34:44;;;;;;;7.83;3.20;;;-0.70;1.00;;;;;;9847008;30;20431;-82
2023/03/05 01:40:06;;;;;;;10.30;4.37;;;-0.70;1.00;;;;;;9843404;30;20247;-83
2023/03/05 01:45:31;;;;;;;7.27;3.40;;;-0.80;1.00;;;;;;9847801;30;20203;-82
2023/03/05 01:50:53;;;;;;;5.43;2.90;;;-0.90;1.00;;;;;;9824905;30;20261;-82
2023/03/05 01:56:15;;;;;;;6.03;2.50;;;-0.90;1.00;;;;;;9825393;30;20243;-82
2023/03/05 02:01:39;;;;;;;5.87;2.30;;;;;;;;;;9810453;30;20224;-84
2023/03/05 02:07:00;;;;;;;5.80;2.87;;;-1.10;1.00;;;;;;9819309;30;20219;-83
2023/03/05 02:12:22;;;;;;;6.73;2.67;;;-1.10;1.00;;;;;;9819648;30;20207;-83
2023/03/05 02:17:44;;;;;;;5.47;2.40;;;-1.10;19.00;;;;;;9809712;30;20245;-84
2023/03/05 02:23:05;;;;;;;5.23;2.40;;;-1.10;99.90;;;;;;9811171;30;20218;-84
2023/03/05 02:28:38;;;;;;;7.73;3.20;;;-1.10;99.90;;;;;;9810716;30;20229;-84
2023/03/05 02:34:00;;;;;;;6.27;3.23;;;-1.10;99.90;;;;;;9834387;30;20278;-84
2023/03/05 02:39:22;;;;;;;3.63;1.90;;;-1.00;1.00;;;;;;9808168;30;20241;-84
2023/03/05 02:44:43;;;;;;;5.17;2.77;;;-1.00;99.90;;;;;;9820595;30;20500;-84
2023/03/05 02:50:07;;;;;;;6.50;2.60;;;-1.00;1.00;;;;;;9823252;30;20280;-84
2023/03/05 02:55:30;;;;;;;4.73;2.50;;;-1.00;1.00;;;;;;9808658;30;20212;-84
2023/03/05 03:00:52;;;;;;;4.43;2.10;;;-1.00;1.00;;;;;;9843415;30;20222;-84
2023/03/05 03:06:13;;;;;;;6.93;2.70;;;-1.00;1.00;;;;;;9831978;30;20457;-84
2023/03/05 03:11:34;;;;;;;5.97;2.57;;;-0.90;1.00;;;;;;9813250;30;20311;-84
2023/03/05 03:16:57;;;;;;;6.40;2.50;;;-0.80;1.00;;;;;;9794953;30;20517;-84
2023/03/05 03:22:18;;;;;;;4.73;2.40;;;-0.80;1.00;;;;;;9834615;30;20197;-84
2023/03/05 03:27:40;;;;;;;3.53;2.23;;;-0.80;99.90;;;;;;9844043;30;20206;-83
2023/03/05 03:33:01;;;;;;;4.50;2.20;;;-0.80;1.00;;;;;;9832609;30;20214;-84
2023/03/05 03:38:23;;;;;;;6.67;2.50;;;-0.80;99.90;;;;;;9852448;30;20251;-82
2023/03/05 03:43:45;;;;;;;9.40;2.83;;;-0.80;1.00;;;;;;9876990;30;20218;-83
2023/03/05 03:49:07;;;;;;;7.30;3.13;;;-0.80;1.00;;;;;;9857800;30;20205;-84
2023/03/05 03:54:28;;;;;;;5.33;2.83;;;-0.80;1.00;;;;;;9844008;30;20216;-83
2023/03/05 03:59:49;;;;;;;4.60;2.00;;;-0.90;1.00;;;;;;9843809;30;20287;-84
2023/03/05 04:05:11;;;;;;;3.13;1.90;;;-0.90;17.30;;;;;;9851624;30;20206;-84
2023/03/05 04:10:32;;;;;;;8.90;2.40;;;-0.90;46.10;;;;;;9855497;30;20584;-84
2023/03/05 04:15:53;;;;;;;6.47;2.53;;;-0.80;73.70;;;;;;9842712;30;20493;-84
2023/03/05 04:21:14;;;;;;;7.00;2.40;;;-0.80;94.70;;;;;;9814833;30;20244;-84
2023/03/05 04:26:36;;;;;;;7.33;2.83;;;-0.80;97.70;;;;;;9830817;30;20402;-83
2023/03/05 04:31:57;;;;;;;6.43;2.20;;;-0.70;97.50;;;;;;9841996;30;20203;-84
2023/03/05 04:37:18;;;;;;;7.00;1.83;;;-0.70;98.20;;;;;;9805539;30;20303;-84
2023/03/05 04:42:40;;;;;;;3.70;2.07;;;-0.70;98.30;;;;;;9807844;30;20203;-84
2023/03/05 04:48:01;;;;;;;5.63;2.13;;;-0.70;97.40;;;;;;9841023;30;20275;-83
2023/03/05 04:53:23;;;;;;;3.27;1.77;;;-0.60;97.40;;;;;;9847721;30;20221;-84
2023/03/05 04:58:45;;;;;;;3.93;1.70;;;-0.60;97.20;;;;;;9849921;30;20231;-83
2023/03/05 05:04:06;;;;;;;5.00;1.50;;;-0.70;98.00;;;;;;9835686;30;20228;-84
2023/03/05 05:09:28;;;;;;;3.30;1.70;;;-0.70;97.80;;;;;;9819316;30;20239;-84
2023/03/05 05:14:49;;;;;;;6.47;1.97;;;-0.60;97.70;;;;;;9836126;30;20215;-83
2023/03/05 05:20:12;;;;;;;3.73;1.40;;;-0.60;97.50;;;;;;9834066;30;20260;-84
2023/03/05 05:25:34;;;;;;;2.90;1.37;;;-0.70;97.30;;;;;;9811998;30;20288;-84
2023/03/05 05:30:56;;;;;;;2.83;1.50;;;-0.70;97.30;;;;;;9811221;30;20214;-84
2023/03/05 05:36:18;;;;;;;1.90;1.27;;;-0.60;97.40;;;;;;9816259;30;20237;-84
2023/03/05 05:41:40;;;;;;;6.57;2.00;;;-0.60;96.60;;;;;;9812499;30;20217;-84
2023/03/05 05:47:01;;;;;;;3.20;1.60;;;-0.70;96.70;;;;;;9825765;30;20221;-84
2023/03/05 05:52:22;;;;;;;6.07;2.27;;;-0.70;97.10;;;;;;9847099;30;20207;-83
2023/03/05 05:57:44;;;;;;;5.73;2.27;;;-0.70;97.00;;;;;;9844437;30;20421;-84
2023/03/05 06:03:06;;;;;;;4.47;1.70;;;-0.70;96.60;;;;;;9834510;30;20425;-84
2023/03/05 06:08:27;;;;;;;5.07;1.60;;;-0.60;97.20;;;;;;9850860;30;20201;-84
2023/03/05 06:13:49;;;;;;;5.40;1.67;;;-0.60;97.30;;;;;;9834322;30;20230;-84
2023/03/05 06:19:12;;;;;;;5.00;2.17;;;-0.50;96.90;;;;;;9824865;30;20551;-84
2023/03/05 06:24:33;;;;;;;13.77;5.47;;;-0.50;97.40;;;;;;9836765;30;20264;-84
2023/03/05 06:29:55;;;;;;;12.83;6.13;;;-0.50;98.40;;;;;;9845486;30;20768;-84
2023/03/05 06:35:16;;;;;;;10.73;5.60;;;-0.40;97.90;;;;;;9861734;30;20212;-84
2023/03/05 06:40:38;;;;;;;8.53;3.40;;;-0.30;98.10;;;;;;9833659;30;20226;-83
2023/03/05 06:46:26;;;;;;;6.43;2.63;;;-0.10;98.50;;;;;;9844931;30;20247;-84
2023/03/05 06:51:47;;;;;;;5.23;2.33;;;0.20;97.90;;;;;;9845267;30;20293;-84
2023/03/05 06:57:09;;;;;;;3.20;1.70;;;1.00;96.30;;;;;;9832964;30;20239;-84
2023/03/05 07:02:31;;;;;;;4.40;1.67;;;2.50;88.50;;;;;;9843397;30;20301;-85
2023/03/05 07:07:52;;;;;;;5.27;1.67;;;3.50;56.10;;;;;;9811483;30;20293;-85
2023/03/05 07:13:13;;;;;;;4.07;1.77;;;5.00;40.70;;;;;;9827801;30;20206;-85
2023/03/05 07:18:35;;;;;;;3.20;1.70;;;5.70;31.90;;;;;;9829689;30;20260;-85
2023/03/05 07:24:00;;;;;;;3.03;1.43;;;6.50;28.00;;;;;;9818802;30;20441;-84
2023/03/05 07:29:22;;;;;;;3.07;1.53;;;7.40;24.10;;;;;;9799059;30;20220;-85
2023/03/05 07:34:43;;;;;;;4.60;1.87;;;7.30;22.40;;;;;;9820956;30;20526;-85
2023/03/05 07:40:05;;;;;;;4.00;1.63;;;7.50;21.40;;;;;;9857232;30;20303;-86
2023/03/05 07:45:26;;;;;;;3.50;1.93;;;6.50;22.00;;;;;;9843634;30;20236;-85
2023/03/05 07:50:48;;;;;;;4.53;2.27;;;5.70;25.10;;;;;;9830494;30;20226;-85
2023/03/05 07:56:10;;;;;;;4.57;2.13;;;6.80;24.30;;;;;;9843389;30;20285;-85
2023/03/05 08:01:31;;;;;;;2.90;1.80;;;7.60;21.50;;;;;;9843778;30;20235;-85
2023/03/05 08:06:52;;;;;;;6.60;2.37;;;7.10;21.00;;;;;;9827357;30;20230;-84
2023/03/05 08:12:14;;;;;;;5.27;1.73;;;7.90;20.50;;;;;;9830757;30;20277;-85
2023/03/05 08:17:35;;;;;;;6.13;2.00;;;9.00;17.40;;;;;;9842720;30;20253;-85
2023/03/05 08:22:56;;;;;;;3.77;1.97;;;10.30;14.70;;;;;;9820756;30;20217;-85
2023/03/05 08:28:18;;;;;;;6.85;1.50;;;11.10;12.00;;;;;;9823431;30;20258;-85
2023/03/05 08:33:40;;;;;;;1.83;1.40;;;11.70;9.90;;;;;;9818179;30;20213;-83
2023/03/05 08:39:02;;;;;;;2.35;1.50;;;12.20;8.70;;;;;;9836447;30;20231;-85
2023/03/05 08:44:23;;;;;;;2.00;1.08;;;12.40;7.20;;;;;;9848041;30;20215;-85
2023/03/05 08:49:45;;;;;;;3.10;1.10;;;12.20;5.60;;;;;;9818680;30;20216;-83
2023/03/05 08:55:07;;;;;;;3.30;1.38;;;11.70;4.10;;;;;;9817741;30;20267;-84
2023/03/05 09:00:28;;;;;;;4.33;2.07;;;11.40;4.80;;;;;;9839986;30;20248;-85
2023/03/05 09:05:50;;;;;;;6.30;2.90;;;12.10;4.10;;;;;;9859186;30;20211;-85
2023/03/05 09:11:12;;;;;;;5.87;3.07;;;11.50;4.10;;;;;;9826200;30;20213;-85
2023/03/05 09:16:35;;;;;;;8.63;3.90;;;10.80;5.30;;;;;;9835532;30;20248;-86
2023/03/05 09:21:56;;;;;;;10.67;5.20;;;10.20;6.00;;;;;;9805074;30;20212;-84
2023/03/05 09:27:17;;;;;;;6.67;2.27;;;9.40;6.00;;;;;;9840815;30;20553;-83
2023/03/05 09:32:39;;;;;;;2.00;1.13;;;8.20;7.00;;;;;;9840906;30;20217;-84
2023/03/05 09:38:00;;;;;;;1.70;1.07;;;7.20;8.30;;;;;;9849922;30;20232;-84
2023/03/05 09:43:44;;;;;;;3.30;1.50;;;7.20;9.30;;;;;;9811528;30;20204;-85
2023/03/05 09:49:11;;;;;;;2.30;1.23;;;7.80;8.50;;;;;;9756651;30;20232;-83
2023/03/05 09:54:42;;;;;;;5.83;1.73;;;7.80;7.90;;;;;;9742468;30;20251;-84
2023/03/05 10:00:08;;;;;;;5.40;2.57;;;7.40;8.00;;;;;;9769909;30;20245;-84
2023/03/05 10:05:52;;;;;;;5.47;2.83;;;6.70;9.00;;;;;;9769490;30;20235;-84
2023/03/05 10:11:35;;;;;;;8.97;2.47;;;6.00;9.30;;;;;;9767340;30;20322;-84
2023/03/05 10:17:20;;;;;;;2.57;1.30;;;5.20;11.30;;;;;;9757261;30;20255;-84
2023/03/05 10:23:07;;;;;;;3.10;1.20;;;6.10;10.70;;;;;;9759985;30;20269;-84
2023/03/05 10:28:37;;;;;;;4.63;2.37;;;8.50;6.10;;;;;;9809401;30;20222;-84
2023/03/05 10:33:58;;;;;;;2.00;1.30;;;10.00;2.30;;;;;;9809132;30;20211;-85
2023/03/05 10:39:45;;;;;;;4.07;1.43;;;9.80;1.40;;;;;;9831920;30;20244;-84
2023/03/05 10:45:20;;;;;;;5.80;2.10;;;7.80;2.90;;;;;;9822208;30;20206;-84
2023/03/05 10:50:47;;;;;;;7.43;2.50;;;6.60;4.40;;;;;;9844265;30;20214;-84
2023/03/05 10:56:11;;;;;;;3.50;1.50;;;7.50;4.70;;;;;;9844312;30;20442;-83
2023/03/05 11:01:32;;;;;;;3.37;1.27;;;9.70;2.00;;;;;;9845149;30;20215;-84
2023/03/05 11:06:54;;;;;;;4.10;1.40;;;10.90;1.00;;;;;;9840777;30;20402;-84
2023/03/05 11:12:18;;;;;;;2.47;1.27;;;10.20;1.00;;;;;;9846316;30;20523;-84
2023/03/05 11:18:15;;;;;;;5.50;2.77;;;8.80;1.10;;;;;;9832978;30;20250;-83
2023/03/05 11:23:37;;;;;;;7.13;2.80;;;8.70;1.40;;;;;;9826634;30;20281;-83
2023/03/05 11:29:02;;;;;;;3.70;1.90;;;7.90;2.50;;;;;;9820056;30;20326;-84
2023/03/05 11:34:30;;;;;;;5.03;2.30;;;6.90;4.40;;;;;;9808492;30;20405;-84
2023/03/05 11:40:09;;;;;;;33.27;12.30;;;5.90;4.20;;;;;;9806222;30;20326;-84
2023/03/05 11:45:32;;;;;;;36.77;16.97;;;6.80;3.80;;;;;;9823397;30;20214;-85
2023/03/05 11:51:01;;;;;;;5.03;2.00;;;9.20;1.00;;;;;;9839726;30;20260;-83
2023/03/05 11:56:26;;;;;;;6.53;2.30;;;9.30;1.00;;;;;;9830737;30;20211;-84
2023/03/05 12:01:54;;;;;;;4.30;1.70;;;8.60;1.00;;;;;;9829628;30;20315;-84
2023/03/05 12:07:21;;;;;;;5.13;1.70;;;9.50;1.00;;;;;;9794489;30;20248;-85
2023/03/05 12:13:14;;;;;;;4.83;1.30;;;11.20;1.00;;;;;;9810940;30;20414;-85
2023/03/05 12:18:59;;;;;;;2.67;1.20;;;12.10;1.00;;;;;;9838306;30;20278;-85
2023/03/05 12:24:26;;;;;;;7.30;1.70;;;12.00;1.00;;;;;;9843506;30;20208;-85
2023/03/05 12:29:54;;;;;;;4.27;1.63;;;12.70;1.00;;;;;;9858032;30;20211;-84
2023/03/05 12:35:28;;;;;;;2.33;1.30;;;12.60;1.00;;;;;;9867961;30;20213;-85
2023/03/05 12:40:49;;;;;;;4.00;2.20;;;13.10;1.00;;;;;;9847596;30;20256;-84
2023/03/05 12:46:28;;;;;;;3.33;1.20;;;13.00;1.00;;;;;;9848305;30;20220;-84
2023/03/05 12:51:55;;;;;;;8.20;3.50;;;13.20;1.00;;;;;;9803659;30;20287;-84
2023/03/05 12:57:25;;;;;;;10.80;3.30;;;13.70;1.00;;;;;;9812300;30;20219;-84
2023/03/05 13:03:07;;;;;;;6.57;2.73;;;12.90;1.00;;;;;;9832533;30;20220;-84
2023/03/05 13:08:36;;;;;;;2.93;1.67;;;11.80;1.00;;;;;;9806893;30;20211;-85
2023/03/05 13:14:01;;;;;;;7.60;2.30;;;11.00;2.80;;;;;;9824350;30;20226;-83
2023/03/05 13:19:23;;;;;;;4.07;1.63;;;10.20;2.10;;;;;;9853957;30;20272;-83
2023/03/05 13:24:45;;;;;;;6.50;1.87;;;10.10;1.60;;;;;;9844882;30;20455;-84
2023/03/05 13:30:27;;;;;;;2.77;1.47;;;10.10;1.00;;;;;;9814986;30;20212;-82
2023/03/05 13:35:49;;;;;;;5.57;1.17;;;9.20;1.00;;;;;;9850712;30;20406;-84
2023/03/05 13:41:19;;;;;;;3.20;1.30;;;9.60;1.00;;;;;;9844149;30;20248;-84
2023/03/05 13:46:42;;;;;;;2.30;0.93;;;10.10;1.00;;;;;;9861129;30;20216;-84
2023/03/05 13:52:27;;;;;;;1.10;0.70;;;10.50;1.00;;;;;;9851500;30;20233;-84
2023/03/05 13:57:54;;;;;;;4.00;1.90;;;10.40;1.00;;;;;;9850985;30;20253;-85
2023/03/05 14:03:25;;;;;;;3.37;1.57;;;10.20;1.00;;;;;;9852936;30;20293;-84
2023/03/05 14:08:53;;;;;;;3.73;1.77;;;9.70;1.00;;;;;;9850988;30;20207;-84
2023/03/05 14:14:17;;;;;;;4.30;2.07;;;9.50;1.00;;;;;;9854776;30;20213;-84
2023/03/05 14:19:39;;;;;;;4.73;2.47;;;8.80;1.00;;;;;;9865050;30;20280;-84
2023/03/05 14:25:05;;;;;;;10.00;3.97;;;7.80;1.00;;;;;;9854961;30;20206;-84
2023/03/05 14:30:29;;;;;;;6.83;2.80;;;7.10;1.00;;;;;;9862643;30;20206;-84
2023/03/05 14:35:51;;;;;;;9.27;3.00;;;6.50;1.10;;;;;;9852638;30;20510;-84
2023/03/05 14:41:41;;;;;;;3.10;1.70;;;6.00;1.60;;;;;;9842148;30;20233;-84
2023/03/05 14:47:02;;;;;;;4.77;1.97;;;5.30;3.10;;;;;;9853608;30;20227;-83
2023/03/05 14:52:24;;;;;;;3.97;2.13;;;5.20;4.20;;;;;;9818060;30;20517;-83
2023/03/05 14:57:50;;;;;;;10.77;3.73;;;5.10;2.50;;;;;;9812576;30;20226;-83
2023/03/05 15:03:13;;;;;;;3.77;1.37;;;5.10;2.60;;;;;;9869642;30;20324;-84
2023/03/05 15:08:35;;;;;;;5.00;2.00;;;5.00;2.20;;;;;;9875332;30;20256;-84
2023/03/05 15:13:56;;;;;;;3.37;1.30;;;4.80;2.10;;;;;;9808533;30;20304;-84
2023/03/05 15:19:17;;;;;;;4.77;1.97;;;4.70;3.10;;;;;;9807113;30;20256;-83
2023/03/05 15:24:39;;;;;;;3.83;1.50;;;4.60;2.20;;;;;;9809093;30;20295;-83
2023/03/05 15:30:05;;;;;;;7.77;3.10;;;4.40;3.40;;;;;;9856702;30;20205;-84
2023/03/05 15:35:27;;;;;;;5.33;2.50;;;4.40;3.80;;;;;;9842868;30;20502;-82
2023/03/05 15:40:50;;;;;;;5.40;1.50;;;4.30;3.20;;;;;;9831625;30;20239;-84
2023/03/05 15:46:12;;;;;;;7.57;1.40;;;3.80;4.10;;;;;;9844218;30;20457;-84
2023/03/05 15:51:34;;;;;;;5.73;1.70;;;3.80;5.20;;;;;;9854869;30;20507;-83
2023/03/05 15:56:55;;;;;;;4.60;1.20;;;3.70;5.70;;;;;;9864205;30;20219;-84
2023/03/05 16:02:17;;;;;;;6.77;2.57;;;3.60;5.70;;;;;;9854817;30;20221;-84
2023/03/05 16:07:43;;;;;;;13.30;4.70;;;3.50;5.50;;;;;;9854626;30;20208;-84
2023/03/05 16:13:12;;;;;;;11.87;6.07;;;3.50;5.70;;;;;;9857282;30;20212;-83
2023/03/05 16:18:39;;;;;;;8.70;3.67;;;3.40;5.80;;;;;;9824928;30;20258;-84
2023/03/05 16:24:01;;;;;;;9.73;4.23;;;3.30;6.70;;;;;;9822929;30;20259;-83
2023/03/05 16:29:23;;;;;;;7.57;3.17;;;3.20;7.30;;;;;;9840731;30;20222;-84
2023/03/05 16:34:54;;;;;;;7.03;3.10;;;3.00;8.60;;;;;;9796323;30;20288;-83
2023/03/05 16:40:20;;;;;;;12.03;3.83;;;2.90;9.40;;;;;;9833486;30;20228;-84
2023/03/05 16:45:51;;;;;;;3.40;2.00;;;2.80;9.90;;;;;;9856048;30;20448;-84
2023/03/05 16:51:13;;;;;;;7.27;3.13;;;2.70;10.50;;;;;;9850379;30;20226;-84
2023/03/05 16:56:34;;;;;;;11.73;4.70;;;2.50;11.10;;;;;;9826806;30;20524;-83
2023/03/05 17:01:55;;;;;;;9.37;4.57;;;2.50;11.60;;;;;;9828934;30;20362;-83
2023/03/05 17:07:17;;;;;;;6.70;3.60;;;2.50;12.10;;;;;;9849409;30;20427;-83
2023/03/05 17:12:38;;;;;;;5.77;3.23;;;2.60;12.50;;;;;;9849528;30;20211;-84
2023/03/05 17:18:00;;;;;;;5.17;2.43;;;2.60;12.60;;;;;;9844455;30;20260;-83
2023/03/05 17:23:22;;;;;;;5.80;1.90;;;2.60;12.50;;;;;;9835063;30;20224;-84
2023/03/05 17:28:43;;;;;;;2.50;1.50;;;2.50;12.60;;;;;;9833296;30;20407;-84
2023/03/05 17:34:05;;;;;;;7.50;3.27;;;2.40;12.90;;;;;;9811395;30;20220;-84
2023/03/05 17:39:26;;;;;;;7.93;3.23;;;2.30;13.20;;;;;;9819808;30;20243;-84
2023/03/05 17:44:48;;;;;;;6.60;2.87;;;2.30;13.50;;;;;;9847591;30;20208;-83
2023/03/05 17:50:12;;;;;;;6.87;2.87;;;2.20;14.10;;;;;;9813855;30;20242;-83
2023/03/05 17:55:35;;;;;;;4.20;2.33;;;2.20;14.40;;;;;;9827784;30;20403;-83
2023/03/05 18:00:59;;;;;;;7.03;3.07;;;2.00;15.40;;;;;;9854757;30;20457;-83
2023/03/05 18:06:20;;;;;;;6.83;2.40;;;2.00;15.60;;;;;;9846911;30;20513;-83
2023/03/05 18:11:41;;;;;;;9.50;3.70;;;1.90;16.00;;;;;;9871038;30;20228;-84
2023/03/05 18:17:02;;;;;;;14.47;6.57;;;1.90;16.40;;;;;;9904181;30;20231;-83
2023/03/05 18:22:25;;;;;;;13.47;7.57;;;1.90;16.30;;;;;;9870900;30;20321;-84
2023/03/05 18:27:46;;;;;;;13.03;6.27;;;1.90;16.20;;;;;;9834309;30;20204;-84
2023/03/05 18:33:15;;;;;;;13.53;6.97;;;1.80;16.60;;;;;;9846130;30;20207;-84
2023/03/05 18:38:38;;;;;;;11.10;5.20;;;1.80;16.90;;;;;;9854362;30;20263;-83
2023/03/05 18:44:00;;;;;;;12.53;5.20;;;1.80;17.20;;;;;;9846066;30;20238;-84
2023/03/05 18:49:21;;;;;;;12.30;6.00;;;1.80;15.00;;;;;;9831480;30;20440;-84
2023/03/05 18:54:43;;;;;;;19.40;7.30;;;1.60;1.00;;;;;;9827562;30;20208;-84
2023/03/05 19:00:05;;;;;;;17.47;7.43;;;1.60;1.00;;;;;;9833266;30;20236;-84
2023/03/05 19:05:26;;;;;;;40.67;15.40;;;1.60;1.00;;;;;;9832921;30;20253;-84
2023/03/05 19:10:47;;;;;;;69.20;27.00;;;1.60;1.00;;;;;;9822796;30;20226;-84
2023/03/05 19:16:12;;;;;;;135.17;48.17;;;1.50;1.00;;;;;;9830461;30;20245;-84
2023/03/05 19:21:33;;;;;;;93.17;37.40;;;1.50;1.00;;;;;;9839523;30;20263;-84
2023/03/05 19:26:59;;;;;;;78.53;30.13;;;1.40;1.00;;;;;;9844313;30;20257;-84
2023/03/05 19:32:23;;;;;;;52.43;23.17;;;1.30;1.00;;;;;;9820536;30;20514;-84
2023/03/05 19:37:45;;;;;;;44.13;19.53;;;1.20;1.00;;;;;;9801515;30;20218;-84
2023/03/05 19:43:07;;;;;;;32.20;12.80;;;1.20;1.00;;;;;;9820128;30;20211;-83
2023/03/05 19:48:31;;;;;;;14.53;6.77;;;1.20;1.00;;;;;;9807347;30;20524;-84
2023/03/05 19:53:53;;;;;;;10.77;4.47;;;1.10;1.00;;;;;;9834767;30;20222;-83
2023/03/05 19:59:39;;;;;;;9.23;3.63;;;1.00;1.00;;;;;;9883765;30;20237;-84
2023/03/05 20:05:01;;;;;;;10.40;3.10;;;0.90;1.00;;;;;;9880070;30;20505;-84
2023/03/05 20:10:23;;;;;;;6.63;2.93;;;0.90;1.00;;;;;;9857110;30;20247;-83
2023/03/05 20:15:44;;;;;;;8.10;4.03;;;0.90;1.00;;;;;;9861835;30;20249;-84
2023/03/05 20:21:05;;;;;;;8.83;3.70;;;0.80;8.60;;;;;;9830181;30;20238;-84
2023/03/05 20:26:27;;;;;;;6.30;3.13;;;0.80;98.60;;;;;;9841511;30;20210;-84
2023/03/05 20:31:51;;;;;;;10.40;4.10;;;0.70;99.90;;;;;;9814411;30;20222;-84
2023/03/05 20:37:12;;;;;;;11.17;4.07;;;0.60;99.90;;;;;;9806474;30;20233;-84
2023/03/05 20:42:34;;;;;;;8.17;3.37;;;0.60;1.00;;;;;;9851652;30;20245;-84
2023/03/05 20:47:55;;;;;;;6.50;3.00;;;0.50;1.00;;;;;;9864229;30;20202;-84
2023/03/05 20:53:17;;;;;;;7.13;3.60;;;0.50;1.00;;;;;;9841588;30;20248;-83
2023/03/05 20:58:38;;;;;;;8.80;3.57;;;0.50;1.00;;;;;;9841404;30;20230;-84
2023/03/05 21:04:00;;;;;;;8.77;3.57;;;0.40;1.00;;;;;;9829898;30;20512;-84
2023/03/05 21:09:21;;;;;;;9.97;3.93;;;0.40;99.90;;;;;;9841293;30;20214;-84
2023/03/05 21:14:43;;;;;;;14.37;4.67;;;0.40;99.90;;;;;;9841680;30;20501;-84
2023/03/05 21:20:05;;;;;;;15.20;6.07;;;0.40;1.00;;;;;;9843627;30;20258;-84
2023/03/05 21:25:31;;;;;;;12.17;5.73;;;0.30;1.00;;;;;;9846572;30;20236;-84
2023/03/05 21:30:53;;;;;;;16.60;6.33;;;0.30;1.00;;;;;;9851722;30;20197;-84
2023/03/05 21:36:17;;;;;;;24.93;7.97;;;0.30;1.00;;;;;;9848627;30;20209;-84
2023/03/05 21:41:38;;;;;;;24.23;8.33;;;0.20;1.00;;;;;;9828432;30;20239;-83
2023/03/05 21:47:00;;;;;;;31.40;11.57;;;0.20;1.00;;;;;;9838699;30;20282;-84
2023/03/05 21:52:21;;;;;;;33.40;14.33;;;0.30;1.00;;;;;;9835717;30;20214;-83
2023/03/05 21:57:43;;;;;;;29.40;10.93;;;0.20;1.00;;;;;;9856009;30;20305;-84
2023/03/05 22:03:04;;;;;;;17.97;6.90;;;0.20;97.50;;;;;;9838224;30;20215;-84
2023/03/05 22:08:28;;;;;;;10.53;4.70;;;0.10;98.10;;;;;;9830027;30;20318;-84
2023/03/05 22:13:50;;;;;;;8.17;3.07;;;0.00;97.90;;;;;;9848963;30;20217;-84
2023/03/05 22:19:11;;;;;;;8.33;3.40;;;0.00;97.90;;;;;;9861693;30;20297;-83
2023/03/05 22:24:32;;;;;;;6.73;3.30;;;0.00;96.60;;;;;;9828602;30;20215;-84
2023/03/05 22:29:53;;;;;;;6.43;3.13;;;0.00;95.90;;;;;;9818309;30;20214;-84
2023/03/05 22:35:15;;;;;;;5.47;2.80;;;-0.10;96.20;;;;;;9846174;30;20229;-85
2023/03/05 22:40:41;;;;;;;7.13;2.90;;;-0.20;97.60;;;;;;9845798;30;20230;-84
2023/03/05 22:46:11;;;;;;;7.30;2.87;;;-0.20;97.10;;;;;;9833303;30;20195;-82
2023/03/05 22:51:32;;;;;;;5.87;2.70;;;-0.20;96.90;;;;;;9858149;30;20266;-84
2023/03/05 22:56:53;;;;;;;5.93;3.00;;;-0.20;97.20;;;;;;9851197;30;20214;-82
2023/03/05 23:02:16;;;;;;;6.13;3.17;;;-0.30;97.40;;;;;;9848641;30;20240;-83
2023/03/05 23:07:39;;;;;;;6.90;2.63;;;-0.40;96.90;;;;;;9841025;30;20213;-84
2023/03/05 23:13:01;;;;;;;4.60;2.13;;;-0.40;98.00;;;;;;9844642;30;20211;-83
2023/03/05 23:18:22;;;;;;;6.73;2.43;;;-0.40;97.60;;;;;;9832660;30;20291;-84
2023/03/05 23:23:43;;;;;;;7.43;2.23;;;-0.40;98.40;;;;;;9808758;30;20221;-84
2023/03/05 23:29:05;;;;;;;3.80;2.17;;;-0.40;98.30;;;;;;9795861;30;20400;-84
2023/03/05 23:34:26;;;;;;;5.90;2.67;;;-0.40;98.50;;;;;;9842777;30;20219;-84
2023/03/05 23:39:47;;;;;;;9.13;2.43;;;-0.50;98.90;;;;;;9820152;30;20240;-84
2023/03/05 23:45:11;;;;;;;8.37;2.50;;;-0.50;99.00;;;;;;9856508;30;20199;-84
2023/03/05 23:50:34;;;;;;;4.30;2.10;;;-0.50;99.40;;;;;;9836706;30;20215;-84
2023/03/05 23:55:56;;;;;;;7.17;2.47;;;-0.50;99.90;;;;;;9807198;30;20206;-83
